createdAt,value
2018-12-31T00:00:27.098Z,1005.11
2018-12-31T00:01:27.018Z,1005.09
2018-12-31T00:02:26.938Z,1005.11
2018-12-31T00:03:26.855Z,1005.15
2018-12-31T00:04:26.773Z,1005.14
2018-12-31T00:05:26.693Z,1005.14
2018-12-31T00:06:26.612Z,1005.15
2018-12-31T00:07:26.531Z,1005.09
2018-12-31T00:08:26.449Z,1005.13
2018-12-31T00:09:26.369Z,1005.12
2018-12-31T00:10:26.288Z,1005.05
2018-12-31T00:11:26.208Z,1005.06
2018-12-31T00:12:26.125Z,1005.05
2018-12-31T00:13:26.044Z,1005.06
2018-12-31T00:14:25.964Z,1005.08
2018-12-31T00:15:25.883Z,1005.07
2018-12-31T00:16:25.801Z,1005.04
2018-12-31T00:17:25.721Z,1005.06
2018-12-31T00:18:25.642Z,1005.06
2018-12-31T00:19:25.569Z,1005.08
2018-12-31T00:20:25.476Z,1005.04
2018-12-31T00:21:25.396Z,1005.06
2018-12-31T00:22:25.315Z,1005.05
2018-12-31T00:23:25.234Z,1005.06
2018-12-31T00:24:25.152Z,1005.10
2018-12-31T00:25:25.072Z,1005.10
2018-12-31T00:26:24.992Z,1005.09
2018-12-31T00:27:24.910Z,1005.11
2018-12-31T00:28:24.828Z,1005.10
2018-12-31T00:29:24.747Z,1005.15
2018-12-31T00:30:24.668Z,1005.15
2018-12-31T00:31:24.687Z,1005.18
2018-12-31T00:32:24.506Z,1005.19
2018-12-31T00:33:24.424Z,1005.23
2018-12-31T00:34:24.343Z,1005.19
2018-12-31T00:35:24.263Z,1005.23
2018-12-31T00:36:24.181Z,1005.19
2018-12-31T00:37:24.102Z,1005.20
2018-12-31T00:38:24.021Z,1005.22
2018-12-31T00:39:23.938Z,1005.18
2018-12-31T00:40:23.857Z,1005.18
2018-12-31T00:41:23.778Z,1005.16
2018-12-31T00:42:23.696Z,1005.19
2018-12-31T00:43:23.614Z,1005.21
2018-12-31T00:44:23.533Z,1005.20
2018-12-31T00:45:23.452Z,1005.21
2018-12-31T00:46:23.370Z,1005.15
2018-12-31T00:47:23.289Z,1005.14
2018-12-31T00:48:23.209Z,1005.11
2018-12-31T00:49:23.128Z,1005.11
2018-12-31T00:50:23.047Z,1005.17
2018-12-31T00:51:22.966Z,1005.15
2018-12-31T00:52:22.884Z,1005.14
2018-12-31T00:53:22.804Z,1005.16
2018-12-31T00:54:22.723Z,1005.16
2018-12-31T00:55:22.644Z,1005.13
2018-12-31T00:56:22.560Z,1005.11
2018-12-31T00:57:22.484Z,1005.10
2018-12-31T00:58:22.401Z,1005.13
2018-12-31T00:59:22.320Z,1005.13
2018-12-31T01:00:22.237Z,1005.11
2018-12-31T01:01:22.157Z,1005.08
2018-12-31T01:02:22.113Z,1005.11
2018-12-31T01:03:21.995Z,1005.06
2018-12-31T01:04:21.913Z,1005.03
2018-12-31T01:05:21.833Z,1004.99
2018-12-31T01:06:22.001Z,1004.99
2018-12-31T01:07:21.671Z,1004.91
2018-12-31T01:08:21.590Z,1004.92
2018-12-31T01:09:21.508Z,1004.90
2018-12-31T01:10:21.429Z,1004.90
2018-12-31T01:11:21.371Z,1004.92
2018-12-31T01:12:21.266Z,1004.92
2018-12-31T01:13:21.186Z,1004.88
2018-12-31T01:14:21.104Z,1004.93
2018-12-31T01:15:21.024Z,1004.94
2018-12-31T01:16:20.944Z,1004.92
2018-12-31T01:17:20.863Z,1004.91
2018-12-31T01:18:20.830Z,1004.90
2018-12-31T01:19:20.700Z,1004.91
2018-12-31T01:20:20.619Z,1004.89
2018-12-31T01:21:20.536Z,1004.90
2018-12-31T01:22:20.456Z,1004.91
2018-12-31T01:23:20.379Z,1004.91
2018-12-31T01:24:20.303Z,1004.90
2018-12-31T01:25:20.214Z,1004.94
2018-12-31T01:26:20.134Z,1004.93
2018-12-31T01:27:20.053Z,1005.00
2018-12-31T01:28:20.223Z,1004.97
2018-12-31T01:29:19.890Z,1004.98
2018-12-31T01:30:19.809Z,1004.97
2018-12-31T01:31:19.729Z,1004.93
2018-12-31T01:32:19.646Z,1004.95
2018-12-31T01:33:19.566Z,1004.97
2018-12-31T01:34:19.486Z,1004.98
2018-12-31T01:35:19.408Z,1005.02
2018-12-31T01:36:19.328Z,1004.98
2018-12-31T01:37:19.242Z,1005.05
2018-12-31T01:38:19.162Z,1005.06
2018-12-31T01:39:19.081Z,1005.05
2018-12-31T01:40:18.999Z,1005.08
2018-12-31T01:41:18.917Z,1005.02
2018-12-31T01:42:18.838Z,1004.98
2018-12-31T01:43:18.758Z,1005.02
2018-12-31T01:44:18.675Z,1005.02
2018-12-31T01:45:18.597Z,1005.04
2018-12-31T01:46:18.514Z,1005.01
2018-12-31T01:47:18.434Z,1005.05
2018-12-31T01:48:18.354Z,1005.05
2018-12-31T01:49:18.271Z,1005.00
2018-12-31T01:50:18.191Z,1004.96
2018-12-31T01:51:18.113Z,1004.94
2018-12-31T01:52:18.028Z,1004.99
2018-12-31T01:53:17.949Z,1004.98
2018-12-31T01:54:17.867Z,1004.99
2018-12-31T01:55:17.787Z,1005.00
2018-12-31T01:56:17.706Z,1005.01
2018-12-31T01:57:17.625Z,1004.97
2018-12-31T01:58:17.546Z,1004.94
2018-12-31T01:59:17.463Z,1004.95
2018-12-31T02:00:17.384Z,1004.94
2018-12-31T02:01:17.301Z,1004.97
2018-12-31T02:02:17.220Z,1004.94
2018-12-31T02:03:17.140Z,1004.94
2018-12-31T02:04:17.058Z,1004.96
2018-12-31T02:05:16.977Z,1004.94
2018-12-31T02:06:16.897Z,1004.97
2018-12-31T02:07:16.814Z,1004.95
2018-12-31T02:08:16.733Z,1004.96
2018-12-31T02:09:16.653Z,1004.91
2018-12-31T02:10:16.625Z,1004.99
2018-12-31T02:11:16.509Z,1005.01
2018-12-31T02:12:16.410Z,1004.95
2018-12-31T02:13:16.329Z,1005.01
2018-12-31T02:14:16.249Z,1005.03
2018-12-31T02:15:16.169Z,1005.03
2018-12-31T02:16:16.087Z,1005.00
2018-12-31T02:17:16.005Z,1005.01
2018-12-31T02:18:15.926Z,1005.04
2018-12-31T02:19:15.850Z,1005.04
2018-12-31T02:20:16.013Z,1005.05
2018-12-31T02:21:15.682Z,1005.08
2018-12-31T02:22:15.603Z,1005.03
2018-12-31T02:23:15.522Z,1005.06
2018-12-31T02:24:15.440Z,1005.09
2018-12-31T02:25:15.360Z,1005.05
2018-12-31T02:26:15.279Z,1005.05
2018-12-31T02:27:15.200Z,1005.03
2018-12-31T02:28:15.117Z,1005.03
2018-12-31T02:29:15.037Z,1005.03
2018-12-31T02:30:14.957Z,1005.03
2018-12-31T02:31:14.877Z,1005.04
2018-12-31T02:32:14.794Z,1005.07
2018-12-31T02:33:14.714Z,1005.07
2018-12-31T02:34:14.634Z,1005.07
2018-12-31T02:35:14.559Z,1005.07
2018-12-31T02:36:14.473Z,1005.08
2018-12-31T02:37:14.400Z,1005.03
2018-12-31T02:38:14.312Z,1005.07
2018-12-31T02:39:14.231Z,1005.10
2018-12-31T02:40:14.150Z,1005.09
2018-12-31T02:41:14.075Z,1005.06
2018-12-31T02:42:13.988Z,1005.07
2018-12-31T02:43:13.907Z,1005.09
2018-12-31T02:44:13.826Z,1005.06
2018-12-31T02:45:13.748Z,1005.08
2018-12-31T02:46:13.666Z,1005.13
2018-12-31T02:47:15.164Z,1005.12
2018-12-31T02:48:13.511Z,1005.10
2018-12-31T02:49:13.426Z,1005.11
2018-12-31T02:50:13.344Z,1005.08
2018-12-31T02:51:13.515Z,1005.10
2018-12-31T02:52:13.185Z,1005.05
2018-12-31T02:53:13.103Z,1005.03
2018-12-31T02:54:13.027Z,1005.01
2018-12-31T02:55:12.947Z,1005.00
2018-12-31T02:56:12.862Z,1005.03
2018-12-31T02:57:12.783Z,1005.01
2018-12-31T02:58:12.701Z,1004.97
2018-12-31T02:59:12.621Z,1004.97
2018-12-31T03:00:12.540Z,1004.99
2018-12-31T03:01:12.460Z,1004.96
2018-12-31T03:02:12.380Z,1004.97
2018-12-31T03:03:12.301Z,1004.98
2018-12-31T03:04:12.223Z,1004.95
2018-12-31T03:05:12.139Z,1004.92
2018-12-31T03:06:12.313Z,1004.94
2018-12-31T03:07:11.983Z,1004.96
2018-12-31T03:08:11.897Z,1004.98
2018-12-31T03:09:11.816Z,1004.96
2018-12-31T03:10:11.736Z,1004.91
2018-12-31T03:11:11.659Z,1004.92
2018-12-31T03:12:11.574Z,1004.93
2018-12-31T03:13:11.495Z,1004.91
2018-12-31T03:14:11.416Z,1004.90
2018-12-31T03:15:11.344Z,1004.93
2018-12-31T03:16:11.252Z,1004.87
2018-12-31T03:17:11.171Z,1004.83
2018-12-31T03:18:11.092Z,1004.80
2018-12-31T03:19:11.011Z,1004.82
2018-12-31T03:20:10.932Z,1004.81
2018-12-31T03:21:10.852Z,1004.82
2018-12-31T03:22:10.770Z,1004.79
2018-12-31T03:23:10.691Z,1004.80
2018-12-31T03:24:10.608Z,1004.78
2018-12-31T03:25:10.529Z,1004.77
2018-12-31T03:26:10.447Z,1004.75
2018-12-31T03:27:10.368Z,1004.75
2018-12-31T03:28:10.286Z,1004.75
2018-12-31T03:29:10.207Z,1004.73
2018-12-31T03:30:10.128Z,1004.68
2018-12-31T03:31:10.047Z,1004.65
2018-12-31T03:32:09.967Z,1004.67
2018-12-31T03:33:09.887Z,1004.65
2018-12-31T03:34:09.807Z,1004.69
2018-12-31T03:35:09.725Z,1004.63
2018-12-31T03:36:09.693Z,1004.61
2018-12-31T03:37:09.563Z,1004.65
2018-12-31T03:38:09.483Z,1004.62
2018-12-31T03:39:09.405Z,1004.62
2018-12-31T03:40:09.321Z,1004.62
2018-12-31T03:41:09.242Z,1004.63
2018-12-31T03:42:09.161Z,1004.60
2018-12-31T03:43:09.080Z,1004.57
2018-12-31T03:44:08.999Z,1004.57
2018-12-31T03:45:08.922Z,1004.55
2018-12-31T03:46:08.839Z,1004.57
2018-12-31T03:47:08.758Z,1004.49
2018-12-31T03:48:08.679Z,1004.49
2018-12-31T03:49:08.597Z,1004.51
2018-12-31T03:50:08.519Z,1004.48
2018-12-31T03:51:08.436Z,1004.49
2018-12-31T03:52:08.355Z,1004.45
2018-12-31T03:53:08.275Z,1004.45
2018-12-31T03:54:08.198Z,1004.43
2018-12-31T03:55:08.116Z,1004.46
2018-12-31T03:56:08.033Z,1004.43
2018-12-31T03:57:07.954Z,1004.43
2018-12-31T03:58:07.875Z,1004.44
2018-12-31T03:59:07.793Z,1004.40
2018-12-31T04:00:07.712Z,1004.45
2018-12-31T04:01:07.633Z,1004.40
2018-12-31T04:02:07.559Z,1004.43
2018-12-31T04:03:07.471Z,1004.42
2018-12-31T04:04:07.399Z,1004.48
2018-12-31T04:05:07.309Z,1004.46
2018-12-31T04:06:07.228Z,1004.48
2018-12-31T04:07:07.148Z,1004.47
2018-12-31T04:08:07.168Z,1004.50
2018-12-31T04:09:06.987Z,1004.51
2018-12-31T04:10:06.906Z,1004.46
2018-12-31T04:11:06.826Z,1004.50
2018-12-31T04:12:06.743Z,1004.54
2018-12-31T04:13:06.662Z,1004.58
2018-12-31T04:14:06.587Z,1004.60
2018-12-31T04:15:06.504Z,1004.58
2018-12-31T04:16:06.421Z,1004.62
2018-12-31T04:17:06.341Z,1004.58
2018-12-31T04:18:06.264Z,1004.53
2018-12-31T04:19:06.178Z,1004.57
2018-12-31T04:20:06.104Z,1004.56
2018-12-31T04:21:06.029Z,1004.53
2018-12-31T04:22:05.936Z,1004.59
2018-12-31T04:23:05.857Z,1004.57
2018-12-31T04:24:05.775Z,1004.61
2018-12-31T04:25:05.705Z,1004.65
2018-12-31T04:26:05.612Z,1004.68
2018-12-31T04:27:05.531Z,1004.66
2018-12-31T04:28:05.450Z,1004.61
2018-12-31T04:29:05.518Z,1004.64
2018-12-31T04:30:05.293Z,1004.65
2018-12-31T04:31:05.209Z,1004.63
2018-12-31T04:32:05.125Z,1004.62
2018-12-31T04:33:05.046Z,1004.68
2018-12-31T04:34:04.965Z,1004.73
2018-12-31T04:35:04.885Z,1004.70
2018-12-31T04:36:04.802Z,1004.68
2018-12-31T04:37:04.723Z,1004.69
2018-12-31T04:38:04.640Z,1004.70
2018-12-31T04:39:04.661Z,1004.75
2018-12-31T04:40:04.479Z,1004.75
2018-12-31T04:41:04.399Z,1004.74
2018-12-31T04:42:04.316Z,1004.70
2018-12-31T04:43:04.235Z,1004.74
2018-12-31T04:44:04.154Z,1004.73
2018-12-31T04:45:04.072Z,1004.69
2018-12-31T04:46:03.992Z,1004.75
2018-12-31T04:47:03.918Z,1004.75
2018-12-31T04:48:03.830Z,1004.77
2018-12-31T04:49:03.753Z,1004.78
2018-12-31T04:50:03.668Z,1004.79
2018-12-31T04:51:03.587Z,1004.79
2018-12-31T04:52:03.507Z,1004.85
2018-12-31T04:53:03.436Z,1004.86
2018-12-31T04:54:03.343Z,1004.84
2018-12-31T04:55:03.264Z,1004.83
2018-12-31T04:56:03.181Z,1004.86
2018-12-31T04:57:03.106Z,1004.85
2018-12-31T04:58:03.019Z,1004.85
2018-12-31T04:59:02.938Z,1004.84
2018-12-31T05:00:02.857Z,1004.86
2018-12-31T05:01:02.780Z,1004.85
2018-12-31T05:02:02.697Z,1004.81
2018-12-31T05:03:02.614Z,1004.84
2018-12-31T05:04:02.537Z,1004.83
2018-12-31T05:05:02.457Z,1004.84
2018-12-31T05:06:02.372Z,1004.83
2018-12-31T05:07:02.306Z,1004.79
2018-12-31T05:08:02.209Z,1004.80
2018-12-31T05:09:02.230Z,1004.77
2018-12-31T05:10:02.147Z,1004.85
2018-12-31T05:11:01.966Z,1004.78
2018-12-31T05:12:01.885Z,1004.83
2018-12-31T05:13:01.804Z,1004.80
2018-12-31T05:14:01.731Z,1004.81
2018-12-31T05:15:01.646Z,1004.79
2018-12-31T05:16:01.614Z,1004.81
2018-12-31T05:17:01.480Z,1004.82
2018-12-31T05:18:01.399Z,1004.86
2018-12-31T05:19:01.319Z,1004.80
2018-12-31T05:20:01.237Z,1004.82
2018-12-31T05:21:01.156Z,1004.83
2018-12-31T05:22:01.079Z,1004.84
2018-12-31T05:23:00.995Z,1004.80
2018-12-31T05:24:00.914Z,1004.80
2018-12-31T05:25:00.839Z,1004.84
2018-12-31T05:26:00.753Z,1004.84
2018-12-31T05:27:00.698Z,1004.86
2018-12-31T05:28:00.592Z,1004.89
2018-12-31T05:29:00.512Z,1004.92
2018-12-31T05:30:00.430Z,1004.96
2018-12-31T05:31:00.349Z,1004.94
2018-12-31T05:32:00.267Z,1004.91
2018-12-31T05:33:00.189Z,1004.93
2018-12-31T05:34:00.106Z,1004.97
2018-12-31T05:35:00.029Z,1004.96
2018-12-31T05:35:59.945Z,1004.96
2018-12-31T05:36:59.864Z,1004.92
2018-12-31T05:37:59.784Z,1004.96
2018-12-31T05:38:59.704Z,1004.98
2018-12-31T05:39:59.622Z,1004.95
2018-12-31T05:40:59.542Z,1004.95
2018-12-31T05:41:59.461Z,1004.97
2018-12-31T05:42:59.482Z,1004.96
2018-12-31T05:43:59.300Z,1004.96
2018-12-31T05:44:59.223Z,1004.96
2018-12-31T05:45:59.139Z,1004.94
2018-12-31T05:46:59.059Z,1004.99
2018-12-31T05:47:58.978Z,1004.97
2018-12-31T05:48:58.898Z,1004.97
2018-12-31T05:49:58.822Z,1004.92
2018-12-31T05:50:58.737Z,1004.92
2018-12-31T05:51:58.655Z,1004.95
2018-12-31T05:52:58.674Z,1004.96
2018-12-31T05:53:58.501Z,1004.96
2018-12-31T05:54:58.414Z,1004.97
2018-12-31T05:55:58.332Z,1005.00
2018-12-31T05:56:58.252Z,1005.01
2018-12-31T05:57:58.172Z,1005.03
2018-12-31T05:58:58.092Z,1005.03
2018-12-31T05:59:58.011Z,1005.02
2018-12-31T06:00:57.928Z,1005.02
2018-12-31T06:01:57.849Z,1005.02
2018-12-31T06:02:57.768Z,1005.06
2018-12-31T06:03:57.729Z,1005.05
2018-12-31T06:04:57.606Z,1005.04
2018-12-31T06:05:57.526Z,1005.09
2018-12-31T06:06:57.446Z,1005.12
2018-12-31T06:07:57.364Z,1005.10
2018-12-31T06:08:57.285Z,1005.14
2018-12-31T06:09:57.204Z,1005.13
2018-12-31T06:10:57.123Z,1005.17
2018-12-31T06:11:57.042Z,1005.17
2018-12-31T06:12:56.966Z,1005.15
2018-12-31T06:13:56.932Z,1005.20
2018-12-31T06:14:56.802Z,1005.20
2018-12-31T06:15:56.721Z,1005.19
2018-12-31T06:16:56.640Z,1005.19
2018-12-31T06:17:56.561Z,1005.21
2018-12-31T06:18:56.481Z,1005.18
2018-12-31T06:19:56.398Z,1005.17
2018-12-31T06:20:56.320Z,1005.19
2018-12-31T06:21:56.239Z,1005.18
2018-12-31T06:22:56.158Z,1005.20
2018-12-31T06:23:56.078Z,1005.17
2018-12-31T06:24:55.997Z,1005.15
2018-12-31T06:25:55.917Z,1005.21
2018-12-31T06:26:55.836Z,1005.21
2018-12-31T06:27:55.755Z,1005.26
2018-12-31T06:28:55.675Z,1005.24
2018-12-31T06:29:55.593Z,1005.28
2018-12-31T06:30:55.515Z,1005.27
2018-12-31T06:31:55.433Z,1005.32
2018-12-31T06:32:55.353Z,1005.32
2018-12-31T06:33:55.285Z,1005.34
2018-12-31T06:34:55.193Z,1005.29
2018-12-31T06:35:55.113Z,1005.31
2018-12-31T06:36:55.032Z,1005.26
2018-12-31T06:37:54.953Z,1005.24
2018-12-31T06:38:54.874Z,1005.26
2018-12-31T06:39:54.791Z,1005.28
2018-12-31T06:40:54.709Z,1005.28
2018-12-31T06:41:54.629Z,1005.28
2018-12-31T06:42:54.549Z,1005.26
2018-12-31T06:43:54.468Z,1005.27
2018-12-31T06:44:54.389Z,1005.27
2018-12-31T06:45:54.307Z,1005.28
2018-12-31T06:46:55.905Z,1005.29
2018-12-31T06:47:54.146Z,1005.28
2018-12-31T06:48:54.066Z,1005.25
2018-12-31T06:49:53.985Z,1005.27
2018-12-31T06:50:53.904Z,1005.25
2018-12-31T06:51:53.824Z,1005.27
2018-12-31T06:52:53.746Z,1005.28
2018-12-31T06:53:53.664Z,1005.33
2018-12-31T06:54:53.584Z,1005.31
2018-12-31T06:55:53.506Z,1005.31
2018-12-31T06:56:53.422Z,1005.34
2018-12-31T06:57:53.342Z,1005.36
2018-12-31T06:58:53.261Z,1005.37
2018-12-31T06:59:53.181Z,1005.39
2018-12-31T07:00:53.352Z,1005.40
2018-12-31T07:01:53.021Z,1005.40
2018-12-31T07:02:52.941Z,1005.41
2018-12-31T07:03:52.859Z,1005.45
2018-12-31T07:04:52.780Z,1005.45
2018-12-31T07:05:52.701Z,1005.46
2018-12-31T07:06:52.620Z,1005.47
2018-12-31T07:07:52.539Z,1005.48
2018-12-31T07:08:52.458Z,1005.48
2018-12-31T07:09:52.378Z,1005.50
2018-12-31T07:10:52.298Z,1005.48
2018-12-31T07:11:52.217Z,1005.49
2018-12-31T07:12:52.138Z,1005.45
2018-12-31T07:13:52.057Z,1005.46
2018-12-31T07:14:51.977Z,1005.40
2018-12-31T07:15:51.897Z,1005.43
2018-12-31T07:16:51.817Z,1005.47
2018-12-31T07:17:51.798Z,1005.48
2018-12-31T07:18:51.655Z,1005.53
2018-12-31T07:19:51.576Z,1005.53
2018-12-31T07:20:51.495Z,1005.50
2018-12-31T07:21:51.414Z,1005.54
2018-12-31T07:22:51.334Z,1005.51
2018-12-31T07:23:51.258Z,1005.53
2018-12-31T07:24:51.178Z,1005.51
2018-12-31T07:25:51.095Z,1005.55
2018-12-31T07:26:51.014Z,1005.63
2018-12-31T07:27:50.933Z,1005.61
2018-12-31T07:28:50.857Z,1005.66
2018-12-31T07:29:50.774Z,1005.65
2018-12-31T07:30:50.693Z,1005.64
2018-12-31T07:31:50.612Z,1005.66
2018-12-31T07:32:50.533Z,1005.62
2018-12-31T07:33:50.453Z,1005.67
2018-12-31T07:34:50.373Z,1005.66
2018-12-31T07:35:50.292Z,1005.72
2018-12-31T07:36:50.213Z,1005.74
2018-12-31T07:37:50.133Z,1005.73
2018-12-31T07:38:50.053Z,1005.70
2018-12-31T07:39:49.974Z,1005.69
2018-12-31T07:40:49.894Z,1005.68
2018-12-31T07:41:49.813Z,1005.71
2018-12-31T07:42:49.733Z,1005.70
2018-12-31T07:43:49.652Z,1005.75
2018-12-31T07:44:49.575Z,1005.77
2018-12-31T07:45:49.495Z,1005.75
2018-12-31T07:46:49.414Z,1005.74
2018-12-31T07:47:49.332Z,1005.77
2018-12-31T07:48:49.253Z,1005.76
2018-12-31T07:49:49.174Z,1005.77
2018-12-31T07:50:49.094Z,1005.80
2018-12-31T07:51:49.018Z,1005.74
2018-12-31T07:52:48.934Z,1005.78
2018-12-31T07:53:48.854Z,1005.81
2018-12-31T07:54:48.775Z,1005.81
2018-12-31T07:55:48.693Z,1005.87
2018-12-31T07:56:48.617Z,1005.88
2018-12-31T07:57:48.534Z,1005.85
2018-12-31T07:58:48.554Z,1005.89
2018-12-31T07:59:48.373Z,1005.93
2018-12-31T08:00:48.295Z,1005.99
2018-12-31T08:01:48.216Z,1005.99
2018-12-31T08:02:48.134Z,1006.00
2018-12-31T08:03:48.054Z,1006.02
2018-12-31T08:04:47.975Z,1005.96
2018-12-31T08:05:47.896Z,1006.00
2018-12-31T08:06:47.816Z,1005.99
2018-12-31T08:07:47.809Z,1006.00
2018-12-31T08:08:47.656Z,1006.04
2018-12-31T08:09:47.577Z,1006.04
2018-12-31T08:10:47.499Z,1006.04
2018-12-31T08:11:47.422Z,1006.05
2018-12-31T08:12:47.337Z,1006.06
2018-12-31T08:13:47.258Z,1006.08
2018-12-31T08:14:47.177Z,1006.10
2018-12-31T08:15:47.099Z,1006.10
2018-12-31T08:16:47.019Z,1006.11
2018-12-31T08:17:46.939Z,1006.10
2018-12-31T08:18:46.860Z,1006.11
2018-12-31T08:19:46.780Z,1006.11
2018-12-31T08:20:46.699Z,1006.12
2018-12-31T08:21:46.619Z,1006.10
2018-12-31T08:22:46.539Z,1006.11
2018-12-31T08:23:46.459Z,1006.11
2018-12-31T08:24:46.380Z,1006.14
2018-12-31T08:25:46.301Z,1006.12
2018-12-31T08:26:46.222Z,1006.06
2018-12-31T08:27:46.141Z,1006.09
2018-12-31T08:28:46.060Z,1006.08
2018-12-31T08:29:45.981Z,1006.09
2018-12-31T08:30:45.907Z,1006.08
2018-12-31T08:31:45.821Z,1006.10
2018-12-31T08:32:45.745Z,1006.10
2018-12-31T08:33:45.662Z,1006.04
2018-12-31T08:34:45.583Z,1006.06
2018-12-31T08:35:45.506Z,1006.06
2018-12-31T08:36:45.423Z,1006.08
2018-12-31T08:37:45.344Z,1006.13
2018-12-31T08:38:45.264Z,1006.15
2018-12-31T08:39:45.183Z,1006.12
2018-12-31T08:40:45.104Z,1006.13
2018-12-31T08:41:45.024Z,1006.11
2018-12-31T08:42:44.947Z,1006.17
2018-12-31T08:43:44.864Z,1006.17
2018-12-31T08:44:44.785Z,1006.13
2018-12-31T08:45:44.705Z,1006.14
2018-12-31T08:46:44.626Z,1006.10
2018-12-31T08:47:44.544Z,1006.08
2018-12-31T08:48:44.466Z,1006.06
2018-12-31T08:49:44.388Z,1006.07
2018-12-31T08:50:44.308Z,1006.08
2018-12-31T08:51:44.225Z,1006.10
2018-12-31T08:52:44.148Z,1006.08
2018-12-31T08:53:44.067Z,1006.10
2018-12-31T08:54:43.988Z,1006.07
2018-12-31T08:55:43.907Z,1006.11
2018-12-31T08:56:43.829Z,1006.09
2018-12-31T08:57:43.749Z,1006.08
2018-12-31T08:58:43.670Z,1006.08
2018-12-31T08:59:43.589Z,1006.16
2018-12-31T09:00:43.511Z,1006.14
2018-12-31T09:01:43.430Z,1006.13
2018-12-31T09:02:43.355Z,1006.16
2018-12-31T09:03:43.271Z,1006.16
2018-12-31T09:04:43.192Z,1006.14
2018-12-31T09:05:43.117Z,1006.09
2018-12-31T09:06:43.034Z,1006.12
2018-12-31T09:07:42.953Z,1006.13
2018-12-31T09:08:42.874Z,1006.12
2018-12-31T09:09:42.794Z,1006.14
2018-12-31T09:10:42.716Z,1006.11
2018-12-31T09:11:42.636Z,1006.12
2018-12-31T09:12:42.555Z,1006.07
2018-12-31T09:13:42.476Z,1006.10
2018-12-31T09:14:42.397Z,1006.08
2018-12-31T09:15:42.319Z,1006.10
2018-12-31T09:16:42.238Z,1006.10
2018-12-31T09:17:42.161Z,1006.10
2018-12-31T09:18:42.081Z,1006.13
2018-12-31T09:19:42.001Z,1006.12
2018-12-31T09:20:41.921Z,1006.08
2018-12-31T09:21:41.840Z,1006.09
2018-12-31T09:22:41.761Z,1006.09
2018-12-31T09:23:41.683Z,1006.12
2018-12-31T09:24:44.700Z,1006.10
2018-12-31T09:25:41.522Z,1006.12
2018-12-31T09:26:41.443Z,1006.17
2018-12-31T09:27:41.363Z,1006.17
2018-12-31T09:28:41.285Z,1006.18
2018-12-31T09:29:41.204Z,1006.21
2018-12-31T09:30:41.128Z,1006.20
2018-12-31T09:31:41.045Z,1006.22
2018-12-31T09:32:40.966Z,1006.23
2018-12-31T09:33:40.886Z,1006.23
2018-12-31T09:34:40.808Z,1006.23
2018-12-31T09:35:40.728Z,1006.23
2018-12-31T09:36:40.648Z,1006.22
2018-12-31T09:37:40.569Z,1006.22
2018-12-31T09:38:40.489Z,1006.18
2018-12-31T09:39:40.410Z,1006.22
2018-12-31T09:40:40.332Z,1006.21
2018-12-31T09:41:40.250Z,1006.23
2018-12-31T09:42:40.171Z,1006.23
2018-12-31T09:43:40.095Z,1006.23
2018-12-31T09:44:40.012Z,1006.22
2018-12-31T09:45:39.933Z,1006.20
2018-12-31T09:46:39.853Z,1006.17
2018-12-31T09:47:39.822Z,1006.20
2018-12-31T09:48:39.693Z,1006.22
2018-12-31T09:49:39.614Z,1006.22
2018-12-31T09:50:39.535Z,1006.20
2018-12-31T09:51:39.538Z,1006.18
2018-12-31T09:52:39.376Z,1006.17
2018-12-31T09:53:39.300Z,1006.13
2018-12-31T09:54:39.216Z,1006.15
2018-12-31T09:55:39.135Z,1006.17
2018-12-31T09:56:39.058Z,1006.17
2018-12-31T09:57:38.977Z,1006.15
2018-12-31T09:58:38.898Z,1006.15
2018-12-31T09:59:38.817Z,1006.13
2018-12-31T10:00:38.738Z,1006.14
2018-12-31T10:01:38.659Z,1006.16
2018-12-31T10:02:38.580Z,1006.18
2018-12-31T10:03:38.500Z,1006.21
2018-12-31T10:04:38.420Z,1006.20
2018-12-31T10:05:38.343Z,1006.18
2018-12-31T10:06:38.263Z,1006.19
2018-12-31T10:07:38.185Z,1006.17
2018-12-31T10:08:38.104Z,1006.18
2018-12-31T10:09:38.025Z,1006.17
2018-12-31T10:10:37.950Z,1006.15
2018-12-31T10:11:37.866Z,1006.16
2018-12-31T10:12:37.786Z,1006.13
2018-12-31T10:13:37.708Z,1006.12
2018-12-31T10:14:37.628Z,1006.17
2018-12-31T10:15:37.548Z,1006.13
2018-12-31T10:16:37.469Z,1006.08
2018-12-31T10:17:37.390Z,1006.10
2018-12-31T10:18:37.311Z,1006.10
2018-12-31T10:19:37.333Z,1006.11
2018-12-31T10:20:37.154Z,1006.12
2018-12-31T10:21:40.965Z,1006.12
2018-12-31T10:22:36.993Z,1006.13
2018-12-31T10:23:36.914Z,1006.11
2018-12-31T10:24:36.835Z,1006.10
2018-12-31T10:25:36.756Z,1006.12
2018-12-31T10:26:36.676Z,1006.14
2018-12-31T10:27:36.595Z,1006.08
2018-12-31T10:28:36.518Z,1006.08
2018-12-31T10:29:36.502Z,1006.11
2018-12-31T10:30:36.358Z,1006.11
2018-12-31T10:31:36.278Z,1006.10
2018-12-31T10:32:36.199Z,1006.12
2018-12-31T10:33:36.121Z,1006.10
2018-12-31T10:34:36.041Z,1006.14
2018-12-31T10:35:35.961Z,1006.09
2018-12-31T10:36:35.884Z,1006.11
2018-12-31T10:37:35.857Z,1006.11
2018-12-31T10:38:35.725Z,1006.07
2018-12-31T10:39:35.645Z,1006.08
2018-12-31T10:40:35.566Z,1006.12
2018-12-31T10:41:35.487Z,1006.12
2018-12-31T10:42:35.409Z,1006.09
2018-12-31T10:43:35.428Z,1006.10
2018-12-31T10:44:35.249Z,1006.06
2018-12-31T10:45:35.170Z,1006.07
2018-12-31T10:46:35.092Z,1006.07
2018-12-31T10:47:35.011Z,1006.09
2018-12-31T10:48:34.934Z,1006.06
2018-12-31T10:49:34.855Z,1006.03
2018-12-31T10:50:34.775Z,1006.02
2018-12-31T10:51:34.696Z,1005.95
2018-12-31T10:52:34.618Z,1005.96
2018-12-31T10:53:34.539Z,1005.93
2018-12-31T10:54:34.461Z,1005.94
2018-12-31T10:55:34.430Z,1005.92
2018-12-31T10:56:34.302Z,1005.88
2018-12-31T10:57:34.222Z,1005.86
2018-12-31T10:58:34.144Z,1005.87
2018-12-31T10:59:34.064Z,1005.86
2018-12-31T11:00:33.985Z,1005.88
2018-12-31T11:01:33.906Z,1005.88
2018-12-31T11:02:33.828Z,1005.90
2018-12-31T11:03:33.746Z,1005.89
2018-12-31T11:04:33.671Z,1005.87
2018-12-31T11:05:33.590Z,1005.85
2018-12-31T11:06:33.511Z,1005.89
2018-12-31T11:07:33.433Z,1005.83
2018-12-31T11:08:33.351Z,1005.87
2018-12-31T11:09:33.273Z,1005.85
2018-12-31T11:10:33.194Z,1005.84
2018-12-31T11:11:33.115Z,1005.85
2018-12-31T11:12:33.038Z,1005.89
2018-12-31T11:13:33.005Z,1005.85
2018-12-31T11:14:32.878Z,1005.84
2018-12-31T11:15:32.801Z,1005.83
2018-12-31T11:16:32.720Z,1005.81
2018-12-31T11:17:32.638Z,1005.81
2018-12-31T11:18:32.565Z,1005.80
2018-12-31T11:19:33.468Z,1005.78
2018-12-31T11:20:32.401Z,1005.79
2018-12-31T11:21:32.324Z,1005.79
2018-12-31T11:22:32.243Z,1005.79
2018-12-31T11:23:32.164Z,1005.78
2018-12-31T11:24:32.085Z,1005.77
2018-12-31T11:25:32.006Z,1005.78
2018-12-31T11:26:31.928Z,1005.78
2018-12-31T11:27:31.851Z,1005.75
2018-12-31T11:28:31.770Z,1005.75
2018-12-31T11:29:31.693Z,1005.74
2018-12-31T11:30:31.612Z,1005.72
2018-12-31T11:31:31.582Z,1005.70
2018-12-31T11:32:31.452Z,1005.70
2018-12-31T11:33:31.374Z,1005.73
2018-12-31T11:34:31.296Z,1005.71
2018-12-31T11:35:31.214Z,1005.70
2018-12-31T11:36:32.462Z,1005.70
2018-12-31T11:37:34.831Z,1005.73
2018-12-31T11:38:30.979Z,1005.71
2018-12-31T11:39:30.898Z,1005.71
2018-12-31T11:40:30.822Z,1005.68
2018-12-31T11:41:30.743Z,1005.64
2018-12-31T11:42:30.669Z,1005.62
2018-12-31T11:43:30.586Z,1005.64
2018-12-31T11:44:30.505Z,1005.62
2018-12-31T11:45:30.435Z,1005.63
2018-12-31T11:46:30.348Z,1005.62
2018-12-31T11:47:30.268Z,1005.59
2018-12-31T11:48:30.190Z,1005.55
2018-12-31T11:49:30.112Z,1005.52
2018-12-31T11:50:30.033Z,1005.50
2018-12-31T11:51:29.954Z,1005.49
2018-12-31T11:52:29.876Z,1005.49
2018-12-31T11:53:29.795Z,1005.49
2018-12-31T11:54:29.717Z,1005.48
2018-12-31T11:55:29.637Z,1005.49
2018-12-31T11:56:29.560Z,1005.45
2018-12-31T11:57:29.481Z,1005.50
2018-12-31T11:58:29.402Z,1005.48
2018-12-31T11:59:29.323Z,1005.47
2018-12-31T12:00:29.243Z,1005.43
2018-12-31T12:01:29.215Z,1005.47
2018-12-31T12:02:29.085Z,1005.44
2018-12-31T12:03:29.009Z,1005.41
2018-12-31T12:04:28.928Z,1005.43